createdAt,value
2023-03-08T00:00:47.021Z,0.93
2023-03-08T00:03:53.095Z,1.00
2023-03-08T00:06:56.627Z,1.45
2023-03-08T00:10:00.133Z,1.20
2023-03-08T00:13:04.802Z,1.45
2023-03-08T00:16:09.229Z,1.13
2023-03-08T00:19:12.632Z,1.48
2023-03-08T00:22:15.946Z,1.17
2023-03-08T00:25:19.341Z,1.15
2023-03-08T00:28:24.309Z,1.05
2023-03-08T00:31:28.954Z,1.30
2023-03-08T00:34:32.377Z,1.25
2023-03-08T00:37:35.800Z,1.20
2023-03-08T00:40:39.216Z,1.10
2023-03-08T00:43:44.562Z,0.80
2023-03-08T00:46:48.089Z,1.20
2023-03-08T00:49:51.469Z,1.65
2023-03-08T00:52:55.454Z,1.23
2023-03-08T00:55:59.633Z,1.40
2023-03-08T00:59:07.390Z,1.38
2023-03-08T01:02:10.858Z,1.23
2023-03-08T01:05:16.719Z,1.05
2023-03-08T01:08:21.406Z,0.93
2023-03-08T01:11:25.951Z,1.20
2023-03-08T01:14:30.828Z,1.10
2023-03-08T01:17:34.184Z,1.10
2023-03-08T01:20:37.753Z,1.30
2023-03-08T01:23:42.617Z,1.20
2023-03-08T01:26:46.212Z,1.00
2023-03-08T01:29:51.015Z,1.48
2023-03-08T01:32:54.394Z,1.25
2023-03-08T01:35:57.831Z,0.93
2023-03-08T01:39:02.012Z,1.25
2023-03-08T01:42:07.185Z,1.30
2023-03-08T01:45:25.882Z,1.10
2023-03-08T01:48:33.145Z,1.88
2023-03-08T01:51:41.639Z,1.17
2023-03-08T01:54:47.152Z,1.27
2023-03-08T01:58:02.360Z,1.00
2023-03-08T02:01:05.791Z,1.30
2023-03-08T02:04:11.342Z,1.25
2023-03-08T02:07:14.819Z,1.13
2023-03-08T02:10:20.099Z,1.15
2023-03-08T02:13:23.470Z,1.27
2023-03-08T02:16:26.735Z,1.52
2023-03-08T02:19:35.724Z,1.45
2023-03-08T02:22:41.911Z,1.20
2023-03-08T02:25:52.070Z,1.23
2023-03-08T02:28:55.993Z,1.10
2023-03-08T02:31:59.788Z,1.35
2023-03-08T02:35:03.142Z,1.00
2023-03-08T02:38:08.157Z,1.20
2023-03-08T02:41:11.524Z,1.40
2023-03-08T02:44:15.020Z,1.33
2023-03-08T02:47:18.774Z,1.48
2023-03-08T02:50:24.025Z,1.50
2023-03-08T02:53:28.793Z,1.40
2023-03-08T02:56:32.390Z,1.83
2023-03-08T02:59:36.025Z,1.52
2023-03-08T03:02:41.149Z,1.48
2023-03-08T03:06:07.094Z,1.58
2023-03-08T03:09:12.625Z,1.63
2023-03-08T03:12:16.055Z,1.52
2023-03-08T03:15:19.994Z,1.50
2023-03-08T03:18:27.981Z,1.83
2023-03-08T03:21:31.510Z,1.67
2023-03-08T03:24:37.603Z,1.80
2023-03-08T03:27:42.644Z,2.05
2023-03-08T03:30:46.554Z,1.55
2023-03-08T03:33:52.224Z,2.05
2023-03-08T03:37:30.558Z,2.10
2023-03-08T03:40:35.692Z,2.30
2023-03-08T03:43:40.578Z,2.15
2023-03-08T03:46:46.767Z,1.92
2023-03-08T03:49:53.729Z,2.08
2023-03-08T03:52:58.508Z,2.00
2023-03-08T03:56:06.170Z,2.95
2023-03-08T03:59:10.059Z,2.75
2023-03-08T04:02:14.292Z,2.55
2023-03-08T04:05:29.727Z,2.47
2023-03-08T04:08:33.065Z,2.40
2023-03-08T04:11:39.329Z,2.53
2023-03-08T04:14:46.432Z,2.75
2023-03-08T04:17:52.305Z,3.30
2023-03-08T04:20:58.156Z,2.85
2023-03-08T04:24:02.171Z,3.60
2023-03-08T04:27:07.500Z,3.15
2023-03-08T04:30:11.838Z,3.55
2023-03-08T04:33:15.463Z,4.15
2023-03-08T04:36:24.628Z,3.60
2023-03-08T04:39:29.870Z,3.80
2023-03-08T04:42:34.686Z,4.07
2023-03-08T04:45:38.545Z,3.85
2023-03-08T04:48:47.009Z,3.42
2023-03-08T04:51:53.002Z,3.67
2023-03-08T04:54:57.086Z,3.47
2023-03-08T04:58:04.989Z,3.97
2023-03-08T05:01:13.091Z,3.20
2023-03-08T05:04:17.768Z,3.55
2023-03-08T05:07:21.329Z,3.60
2023-03-08T05:10:26.230Z,3.85
2023-03-08T05:13:31.751Z,3.92
2023-03-08T05:16:35.874Z,3.78
2023-03-08T05:19:40.043Z,3.22
2023-03-08T05:22:57.911Z,3.20
2023-03-08T05:26:08.844Z,3.15
2023-03-08T05:29:13.547Z,3.28
2023-03-08T05:32:17.589Z,3.40
2023-03-08T05:35:21.024Z,3.60
2023-03-08T05:38:27.601Z,3.47
2023-03-08T05:41:31.512Z,3.00
2023-03-08T05:44:37.750Z,2.83
2023-03-08T05:47:42.275Z,3.13
2023-03-08T05:50:46.402Z,2.67
2023-03-08T05:53:50.041Z,3.40
2023-03-08T05:56:56.415Z,3.13
2023-03-08T06:00:06.248Z,2.50
2023-03-08T06:03:22.789Z,2.53
2023-03-08T06:06:29.798Z,2.72
2023-03-08T06:09:37.182Z,3.35
2023-03-08T06:12:42.197Z,3.17
2023-03-08T06:15:50.435Z,2.63
2023-03-08T06:18:53.920Z,2.67
2023-03-08T06:21:57.338Z,2.58
2023-03-08T06:25:01.722Z,2.85
2023-03-08T06:28:11.003Z,2.38
2023-03-08T06:31:20.693Z,2.42
2023-03-08T06:34:24.112Z,2.38
2023-03-08T06:37:33.734Z,2.58
2023-03-08T06:40:37.600Z,2.28
2023-03-08T06:43:41.227Z,2.67
2023-03-08T06:46:46.258Z,2.35
2023-03-08T06:49:52.105Z,2.67
2023-03-08T06:52:56.232Z,2.83
2023-03-08T06:56:14.188Z,2.15
2023-03-08T06:59:18.492Z,2.67
2023-03-08T07:02:23.371Z,2.65
2023-03-08T07:05:27.234Z,2.20
2023-03-08T07:08:31.065Z,2.33
2023-03-08T07:11:34.521Z,2.45
2023-03-08T07:14:37.969Z,2.28
2023-03-08T07:17:44.150Z,2.10
2023-03-08T07:20:48.427Z,2.45
2023-03-08T07:23:53.786Z,2.42
2023-03-08T07:26:57.192Z,2.90
2023-03-08T07:30:05.474Z,2.70
2023-03-08T07:33:13.378Z,2.25
2023-03-08T07:36:17.512Z,2.50
2023-03-08T07:39:20.978Z,3.03
2023-03-08T07:42:24.641Z,2.40
2023-03-08T07:45:32.750Z,2.10
2023-03-08T07:48:37.639Z,2.53
2023-03-08T07:51:41.211Z,2.60
2023-03-08T07:54:44.799Z,2.47
2023-03-08T07:57:48.161Z,2.92
2023-03-08T08:00:51.651Z,2.67
2023-03-08T08:03:57.391Z,2.58
2023-03-08T08:07:01.635Z,2.50
2023-03-08T08:10:06.420Z,2.45
2023-03-08T08:13:10.038Z,2.90
2023-03-08T08:16:15.147Z,2.95
2023-03-08T08:19:20.763Z,2.25
2023-03-08T08:22:24.650Z,2.80
2023-03-08T08:25:28.206Z,2.30
2023-03-08T08:28:31.517Z,3.03
2023-03-08T08:31:39.057Z,2.40
2023-03-08T08:34:48.240Z,2.45
2023-03-08T08:38:02.585Z,2.45
2023-03-08T08:41:07.046Z,2.78
2023-03-08T08:44:10.851Z,2.90
2023-03-08T08:47:14.375Z,2.80
2023-03-08T08:50:19.447Z,2.65
2023-03-08T08:53:23.331Z,2.42
2023-03-08T08:56:28.488Z,2.70
2023-03-08T08:59:34.960Z,2.58
2023-03-08T09:02:38.811Z,2.58
2023-03-08T09:05:45.329Z,2.85
2023-03-08T09:08:50.897Z,2.92
2023-03-08T09:11:55.904Z,2.67
2023-03-08T09:15:00.165Z,2.92
2023-03-08T09:18:10.545Z,2.33
2023-03-08T09:21:15.921Z,2.75
2023-03-08T09:24:19.282Z,2.30
2023-03-08T09:27:22.801Z,2.30
2023-03-08T09:30:26.210Z,2.40
2023-03-08T09:33:29.824Z,2.33
2023-03-08T09:36:34.520Z,2.10
2023-03-08T09:39:38.530Z,2.35
2023-03-08T09:42:41.972Z,2.20
2023-03-08T09:45:45.380Z,2.20
2023-03-08T09:48:50.799Z,2.28
2023-03-08T09:51:59.976Z,1.92
2023-03-08T09:55:05.131Z,2.22
2023-03-08T09:58:16.218Z,1.92
2023-03-08T10:01:23.402Z,2.42
2023-03-08T10:04:41.761Z,1.80
2023-03-08T10:07:54.513Z,2.10
2023-03-08T10:11:01.320Z,1.80
2023-03-08T10:14:08.645Z,1.92
2023-03-08T10:17:14.121Z,1.80
2023-03-08T10:20:21.021Z,2.05
2023-03-08T10:23:27.936Z,1.92
2023-03-08T10:26:33.390Z,2.10
2023-03-08T10:29:36.984Z,1.83
2023-03-08T10:32:44.204Z,1.85
2023-03-08T10:35:58.620Z,1.55
2023-03-08T10:39:08.291Z,1.73
2023-03-08T10:42:16.198Z,1.92
2023-03-08T10:45:22.206Z,1.80
2023-03-08T10:48:25.912Z,1.80
2023-03-08T10:51:29.953Z,1.77
2023-03-08T10:54:34.946Z,1.88
2023-03-08T10:57:39.185Z,1.88
2023-03-08T11:00:44.530Z,2.05
2023-03-08T11:03:49.367Z,1.67
2023-03-08T11:06:53.434Z,1.75
2023-03-08T11:10:25.973Z,2.72
2023-03-08T11:13:32.566Z,2.20
2023-03-08T11:16:53.875Z,2.30
2023-03-08T11:20:01.892Z,2.20
2023-03-08T11:23:15.333Z,2.22
2023-03-08T11:26:24.107Z,4.35
2023-03-08T11:29:34.928Z,2.50
2023-03-08T11:32:48.434Z,1.83
2023-03-08T11:35:53.938Z,1.80
2023-03-08T11:38:59.896Z,1.67
2023-03-08T11:42:10.484Z,1.67
2023-03-08T11:45:19.424Z,2.08
2023-03-08T11:48:47.019Z,1.50
2023-03-08T11:51:54.346Z,1.38
2023-03-08T11:55:11.079Z,1.48
2023-03-08T11:58:20.249Z,1.70
2023-03-08T12:01:25.323Z,1.60
2023-03-08T12:04:32.491Z,1.52
2023-03-08T12:07:37.950Z,1.73
2023-03-08T12:10:44.931Z,1.77
2023-03-08T12:13:50.824Z,1.35
2023-03-08T12:16:56.528Z,1.48
2023-03-08T12:20:00.036Z,1.52
2023-03-08T12:23:07.221Z,1.17
2023-03-08T12:26:12.295Z,1.52
2023-03-08T12:29:21.247Z,1.40
2023-03-08T12:32:27.423Z,1.35
2023-03-08T12:35:32.279Z,1.48
2023-03-08T12:38:37.576Z,1.33
2023-03-08T12:41:41.158Z,1.52
2023-03-08T12:44:49.982Z,1.60
2023-03-08T12:48:03.385Z,1.23
2023-03-08T12:51:09.657Z,1.67
2023-03-08T12:54:21.741Z,1.70
2023-03-08T12:57:27.262Z,1.42
2023-03-08T13:00:33.249Z,1.48
2023-03-08T13:03:41.177Z,1.35
2023-03-08T13:06:56.527Z,1.60
2023-03-08T13:10:03.190Z,1.30
2023-03-08T13:13:35.270Z,1.30
2023-03-08T13:16:45.532Z,1.80
2023-03-08T13:19:50.001Z,1.40
2023-03-08T13:23:01.299Z,1.55
2023-03-08T13:26:14.116Z,1.27
2023-03-08T13:29:18.765Z,1.73
2023-03-08T13:32:25.152Z,1.50
2023-03-08T13:35:29.088Z,1.33
2023-03-08T13:38:34.024Z,1.60
2023-03-08T13:41:38.242Z,1.42
2023-03-08T13:44:41.737Z,1.20
2023-03-08T13:47:47.383Z,1.67
2023-03-08T13:50:51.863Z,1.65
2023-03-08T13:54:05.437Z,1.40
2023-03-08T13:57:21.856Z,1.27
2023-03-08T14:00:26.692Z,1.50
2023-03-08T14:03:33.732Z,1.67
2023-03-08T14:06:38.567Z,1.30
2023-03-08T14:09:44.659Z,1.42
2023-03-08T14:12:47.917Z,1.25
2023-03-08T14:15:52.216Z,1.20
2023-03-08T14:18:58.080Z,1.38
2023-03-08T14:22:02.564Z,1.48
2023-03-08T14:25:07.104Z,1.30
2023-03-08T14:28:34.577Z,1.45
2023-03-08T14:31:38.875Z,1.20
2023-03-08T14:34:44.379Z,1.35
2023-03-08T14:37:48.309Z,1.48
2023-03-08T14:40:52.136Z,1.23
2023-03-08T14:43:56.546Z,1.15
2023-03-08T14:47:09.112Z,1.30
2023-03-08T14:50:21.772Z,1.50
2023-03-08T14:53:29.068Z,1.35
2023-03-08T14:56:32.507Z,1.38
2023-03-08T14:59:35.789Z,1.27
2023-03-08T15:02:39.512Z,1.40
2023-03-08T15:05:45.633Z,1.33
2023-03-08T15:08:49.500Z,1.45
2023-03-08T15:11:57.068Z,1.40
2023-03-08T15:15:00.412Z,1.38
2023-03-08T15:18:04.010Z,0.98
2023-03-08T15:21:08.786Z,1.35
2023-03-08T15:24:15.894Z,1.30
2023-03-08T15:27:19.172Z,1.33
2023-03-08T15:30:23.553Z,1.17
2023-03-08T15:33:27.099Z,1.35
2023-03-08T15:36:34.662Z,1.50
2023-03-08T15:39:38.131Z,1.30
2023-03-08T15:42:41.652Z,1.20
2023-03-08T15:45:45.013Z,1.20
2023-03-08T15:48:50.794Z,1.17
2023-03-08T15:51:55.504Z,1.40
2023-03-08T15:54:59.159Z,1.83
2023-03-08T15:58:02.666Z,1.80
2023-03-08T16:01:06.323Z,1.13
2023-03-08T16:04:09.714Z,1.50
2023-03-08T16:07:15.119Z,2.08
2023-03-08T16:10:18.653Z,1.35
2023-03-08T16:13:22.842Z,1.40
2023-03-08T16:16:42.318Z,1.48
2023-03-08T16:19:47.786Z,1.45
2023-03-08T16:22:52.625Z,1.40
2023-03-08T16:26:14.299Z,1.08
2023-03-08T16:29:19.166Z,1.38
2023-03-08T16:32:22.648Z,2.08
2023-03-08T16:35:26.248Z,1.73
2023-03-08T16:38:31.137Z,2.05
2023-03-08T16:41:34.974Z,1.70
2023-03-08T16:44:38.951Z,1.42
2023-03-08T16:47:42.309Z,1.48
2023-03-08T16:50:51.103Z,1.38
2023-03-08T16:53:56.575Z,1.70
2023-03-08T16:57:13.024Z,1.92
2023-03-08T17:00:21.820Z,2.10
2023-03-08T17:03:25.314Z,1.90
2023-03-08T17:06:29.423Z,1.63
2023-03-08T17:09:34.077Z,1.58
2023-03-08T17:12:38.280Z,2.13
2023-03-08T17:15:42.637Z,1.90
2023-03-08T17:18:45.921Z,1.63
2023-03-08T17:21:50.977Z,2.53
2023-03-08T17:24:56.659Z,2.65
2023-03-08T17:27:59.921Z,2.42
2023-03-08T17:31:03.537Z,1.55
2023-03-08T17:34:07.178Z,1.33
2023-03-08T17:37:12.156Z,2.17
2023-03-08T17:40:17.851Z,1.92
2023-03-08T17:43:21.269Z,1.92
2023-03-08T17:46:30.826Z,1.73
2023-03-08T17:49:36.295Z,1.92
2023-03-08T17:52:39.850Z,1.67
2023-03-08T17:55:44.882Z,1.90
2023-03-08T17:58:49.961Z,1.67
2023-03-08T18:01:53.223Z,1.60
2023-03-08T18:04:57.132Z,1.73
2023-03-08T18:08:00.407Z,1.52
2023-03-08T18:11:05.848Z,1.58
2023-03-08T18:14:10.218Z,1.20
2023-03-08T18:17:17.805Z,1.35
2023-03-08T18:20:22.151Z,1.40
2023-03-08T18:23:25.600Z,1.85
2023-03-08T18:26:30.352Z,1.13
2023-03-08T18:29:34.050Z,1.73
2023-03-08T18:32:37.425Z,1.38
2023-03-08T18:35:41.358Z,1.60
2023-03-08T18:38:44.746Z,1.98
2023-03-08T18:41:49.538Z,1.52
2023-03-08T18:44:52.852Z,1.88
2023-03-08T18:47:56.863Z,1.83
2023-03-08T18:51:01.770Z,1.83
2023-03-08T18:54:05.940Z,2.05
2023-03-08T18:57:10.566Z,1.92
2023-03-08T19:00:15.201Z,1.90
2023-03-08T19:03:18.559Z,2.00
2023-03-08T19:06:22.010Z,1.90
2023-03-08T19:09:25.768Z,1.63
2023-03-08T19:12:33.628Z,1.88
2023-03-08T19:15:38.551Z,1.83
2023-03-08T19:18:41.901Z,1.90
2023-03-08T19:21:46.026Z,2.33
2023-03-08T19:24:49.339Z,1.55
2023-03-08T19:27:54.368Z,1.77
2023-03-08T19:30:57.693Z,1.70
2023-03-08T19:34:01.174Z,1.63
2023-03-08T19:37:05.312Z,2.05
2023-03-08T19:40:09.836Z,2.08
2023-03-08T19:43:14.714Z,2.20
2023-03-08T19:46:18.315Z,2.00
2023-03-08T19:49:23.521Z,2.35
2023-03-08T19:52:26.924Z,2.13
2023-03-08T19:55:30.294Z,2.38
2023-03-08T19:58:35.082Z,2.55
2023-03-08T20:01:38.935Z,1.98
2023-03-08T20:04:42.307Z,1.73
2023-03-08T20:07:45.672Z,2.40
2023-03-08T20:10:49.333Z,2.17
2023-03-08T20:13:54.203Z,2.30
2023-03-08T20:16:58.943Z,2.05
2023-03-08T20:20:02.425Z,2.17
2023-03-08T20:23:06.180Z,2.20
2023-03-08T20:26:09.623Z,2.38
2023-03-08T20:29:18.427Z,2.00
2023-03-08T20:32:28.021Z,1.85
2023-03-08T20:35:31.758Z,2.20
2023-03-08T20:38:36.733Z,2.25
2023-03-08T20:41:44.346Z,1.92
2023-03-08T20:44:49.748Z,2.60
2023-03-08T20:47:58.917Z,1.77
2023-03-08T20:51:06.825Z,2.05
2023-03-08T20:54:14.817Z,2.13
2023-03-08T20:57:18.886Z,2.05
2023-03-08T21:00:25.640Z,1.95
2023-03-08T21:03:31.744Z,1.80
2023-03-08T21:06:35.857Z,1.40
2023-03-08T21:09:47.751Z,2.35
2023-03-08T21:12:51.700Z,2.25
2023-03-08T21:16:02.955Z,2.17
2023-03-08T21:23:02.221Z,1.95
2023-03-08T21:26:31.750Z,2.00
2023-03-08T21:29:52.814Z,2.08
2023-03-08T21:36:46.636Z,1.85
2023-03-08T21:40:03.147Z,1.95
2023-03-08T21:43:20.729Z,2.15
2023-03-08T21:46:37.723Z,2.25
2023-03-08T21:50:10.739Z,1.98
2023-03-08T21:53:16.532Z,2.10
2023-03-08T21:56:35.572Z,1.70
2023-03-08T22:05:53.288Z,2.30
2023-03-08T22:08:58.392Z,1.88
2023-03-08T22:12:01.837Z,1.80
2023-03-08T22:15:07.947Z,1.95
2023-03-08T22:18:11.338Z,1.63
2023-03-08T22:21:14.796Z,1.92
2023-03-08T22:24:19.575Z,1.83
2023-03-08T22:27:27.778Z,2.45
2023-03-08T22:30:31.171Z,1.70
2023-03-08T22:33:34.475Z,1.63
2023-03-08T22:36:37.847Z,2.38
2023-03-08T22:39:43.226Z,2.33
2023-03-08T22:42:46.728Z,1.77
2023-03-08T22:45:50.088Z,1.98
2023-03-08T22:48:54.313Z,2.00
2023-03-08T22:51:58.686Z,1.75
2023-03-08T22:55:03.442Z,1.77
2023-03-08T22:58:06.861Z,1.55
2023-03-08T23:01:14.053Z,1.58
2023-03-08T23:04:17.425Z,1.73
2023-03-08T23:07:20.765Z,1.55
2023-03-08T23:10:25.434Z,1.90
2023-03-08T23:13:34.516Z,2.05
2023-03-08T23:16:41.247Z,1.77
2023-03-08T23:19:44.940Z,1.52
2023-03-08T23:22:48.651Z,1.90
2023-03-08T23:25:53.267Z,1.85
2023-03-08T23:28:57.874Z,1.80
2023-03-08T23:32:01.247Z,1.45
2023-03-08T23:35:04.664Z,2.05
2023-03-08T23:38:08.199Z,1.52
2023-03-08T23:41:14.249Z,1.88
2023-03-08T23:44:18.327Z,1.60
2023-03-08T23:47:21.729Z,1.73
2023-03-08T23:50:25.111Z,2.05
2023-03-08T23:53:28.387Z,2.00
2023-03-08T23:56:37.709Z,1.83
2023-03-08T23:59:41.209Z,1.60
